createdAt,value
2022-09-28T00:02:08.915Z,540.90
2022-09-28T00:07:08.792Z,540.90
2022-09-28T00:12:08.748Z,530.00
2022-09-28T00:17:08.783Z,530.00
2022-09-28T00:22:08.771Z,538.60
2022-09-28T00:27:08.815Z,538.60
2022-09-28T00:32:08.797Z,546.80
2022-09-28T00:37:08.890Z,546.80
2022-09-28T00:42:08.760Z,538.80
2022-09-28T00:47:08.806Z,538.80
2022-09-28T00:52:08.801Z,532.00
2022-09-28T00:57:08.800Z,532.00
2022-09-28T01:02:08.851Z,538.20
2022-09-28T01:07:08.782Z,538.20
2022-09-28T01:17:08.807Z,535.30
2022-09-28T01:22:08.782Z,535.90
2022-09-28T01:27:08.815Z,535.90
2022-09-28T01:32:08.831Z,539.10
2022-09-28T01:37:08.823Z,539.10
2022-09-28T01:42:08.798Z,541.20
2022-09-28T01:47:08.814Z,541.20
2022-09-28T01:52:08.793Z,540.10
2022-09-28T01:57:08.832Z,540.10
2022-09-28T02:02:08.942Z,541.40
2022-09-28T02:07:08.842Z,541.40
2022-09-28T02:12:08.838Z,522.90
2022-09-28T02:17:08.828Z,522.90
2022-09-28T02:22:08.809Z,552.60
2022-09-28T02:27:08.874Z,552.60
2022-09-28T02:32:08.846Z,558.40
2022-09-28T02:37:08.808Z,558.40
2022-09-28T02:42:08.847Z,552.70
2022-09-28T02:47:08.816Z,552.70
2022-09-28T02:57:08.857Z,554.10
2022-09-28T03:02:08.873Z,559.90
2022-09-28T03:12:08.868Z,555.20
2022-09-28T03:17:08.840Z,555.20
2022-09-28T03:22:08.869Z,544.70
2022-09-28T03:27:08.873Z,544.70
2022-09-28T03:32:08.865Z,540.40
2022-09-28T03:37:08.843Z,540.40
2022-09-28T03:42:08.875Z,534.70
2022-09-28T03:47:08.861Z,534.70
2022-09-28T03:52:08.884Z,545.90
2022-09-28T03:57:08.843Z,545.90
2022-09-28T04:02:08.974Z,535.10
2022-09-28T04:07:08.890Z,535.10
2022-09-28T04:12:08.871Z,536.40
2022-09-28T04:17:08.884Z,536.40
2022-09-28T04:22:08.890Z,555.20
2022-09-28T04:27:08.889Z,555.20
2022-09-28T04:32:08.903Z,551.00
2022-09-28T04:37:08.870Z,551.00
2022-09-28T04:42:08.903Z,543.70
2022-09-28T04:47:08.903Z,543.70
2022-09-28T04:52:08.888Z,557.40
2022-09-28T05:02:08.957Z,554.10
2022-09-28T05:07:08.883Z,554.10
2022-09-28T05:12:08.896Z,549.80
2022-09-28T05:17:08.918Z,549.80
2022-09-28T05:22:08.938Z,518.60
2022-09-28T05:32:08.967Z,547.80
2022-09-28T05:37:08.897Z,547.80
2022-09-28T05:42:08.932Z,552.50
2022-09-28T05:52:08.941Z,535.20
2022-09-28T05:57:08.898Z,535.20
2022-09-28T06:02:08.982Z,539.10
2022-09-28T06:07:08.954Z,539.10
2022-09-28T06:12:08.959Z,531.20
2022-09-28T06:17:09.004Z,531.20
2022-09-28T06:22:08.980Z,529.40
2022-09-28T06:27:08.927Z,529.40
2022-09-28T06:32:08.956Z,534.40
2022-09-28T06:37:08.950Z,534.40
2022-09-28T06:42:08.915Z,534.80
2022-09-28T06:47:08.943Z,534.80
2022-09-28T06:52:08.983Z,536.10
2022-09-28T06:57:08.926Z,536.10
2022-09-28T07:02:08.986Z,527.40
2022-09-28T07:07:08.972Z,527.40
2022-09-28T07:12:08.949Z,530.60
2022-09-28T07:17:13.159Z,530.60
2022-09-28T07:22:09.005Z,530.40
2022-09-28T07:27:08.984Z,530.40
2022-09-28T07:32:09.014Z,527.70
2022-09-28T07:37:08.957Z,527.70
2022-09-28T07:42:09.059Z,520.70
2022-09-28T07:47:09.039Z,520.70
2022-09-28T07:52:08.972Z,523.20
2022-09-28T07:57:09.009Z,523.20
2022-09-28T08:02:09.136Z,520.40
2022-09-28T08:07:08.993Z,520.40
2022-09-28T08:12:09.001Z,524.80
2022-09-28T08:17:08.976Z,524.80
2022-09-28T08:22:08.987Z,539.70
2022-09-28T08:27:08.999Z,539.70
2022-09-28T08:32:08.992Z,551.50
2022-09-28T08:37:08.989Z,551.50
2022-09-28T08:42:09.027Z,555.40
2022-09-28T08:47:09.000Z,555.40
2022-09-28T08:52:08.991Z,551.10
2022-09-28T08:57:09.000Z,551.10
2022-09-28T09:02:09.069Z,527.30
2022-09-28T09:07:09.215Z,527.30
2022-09-28T09:12:09.028Z,533.60
2022-09-28T09:17:09.003Z,533.60
2022-09-28T09:22:09.038Z,557.60
2022-09-28T09:27:09.041Z,557.60
2022-09-28T09:32:09.024Z,560.00
2022-09-28T09:37:09.003Z,560.00
2022-09-28T09:42:09.025Z,568.60
2022-09-28T09:47:09.037Z,568.60
2022-09-28T09:52:09.008Z,602.00
2022-09-28T09:57:09.050Z,602.00
2022-09-28T10:02:11.747Z,557.30
2022-09-28T10:07:09.034Z,557.30
2022-09-28T10:12:09.140Z,564.50
2022-09-28T10:17:09.088Z,564.50
2022-09-28T10:22:09.077Z,542.90
2022-09-28T10:27:09.056Z,542.90
2022-09-28T10:32:09.097Z,563.00
2022-09-28T10:42:09.070Z,557.10
2022-09-28T10:47:09.062Z,557.10
2022-09-28T10:52:09.058Z,537.60
2022-09-28T10:57:13.286Z,537.60
2022-09-28T11:02:09.156Z,564.30
2022-09-28T11:07:09.047Z,564.30
2022-09-28T11:12:09.080Z,546.40
2022-09-28T11:17:09.144Z,546.40
2022-09-28T11:22:11.888Z,546.20
2022-09-28T11:27:09.067Z,546.20
2022-09-28T11:32:12.535Z,544.50
2022-09-28T11:37:09.092Z,544.50
2022-09-28T11:42:12.948Z,545.80
2022-09-28T11:47:09.085Z,545.80
2022-09-28T11:52:09.219Z,544.60
2022-09-28T11:57:09.071Z,544.60
2022-09-28T12:02:09.282Z,556.80
2022-09-28T12:07:09.111Z,556.80
2022-09-28T12:12:09.070Z,570.80
2022-09-28T12:17:09.159Z,570.80
2022-09-28T12:22:09.504Z,570.90
2022-09-28T12:27:09.095Z,570.90
2022-09-28T12:32:09.111Z,567.10
2022-09-28T12:37:09.111Z,567.10
2022-09-28T12:42:09.129Z,590.70
2022-09-28T12:47:09.178Z,590.70
2022-09-28T12:52:09.199Z,601.40
2022-09-28T12:57:09.165Z,601.40
2022-09-28T13:02:09.166Z,613.20
2022-09-28T13:07:09.139Z,613.20
2022-09-28T13:12:09.153Z,629.60
2022-09-28T13:22:09.148Z,618.20
2022-09-28T13:27:09.115Z,618.20
2022-09-28T13:32:09.178Z,635.00
2022-09-28T13:37:09.126Z,635.00
2022-09-28T13:42:09.174Z,661.00
2022-09-28T13:47:09.709Z,661.00
2022-09-28T13:52:09.143Z,636.10
2022-09-28T13:57:09.168Z,636.10
2022-09-28T14:02:09.258Z,623.90
2022-09-28T14:07:09.166Z,623.90
2022-09-28T14:12:09.135Z,631.80
2022-09-28T14:17:09.307Z,631.80
2022-09-28T14:22:09.144Z,649.30
2022-09-28T14:27:09.174Z,649.30
2022-09-28T14:32:09.214Z,646.80
2022-09-28T14:37:09.193Z,646.80
2022-09-28T14:42:09.199Z,648.60
2022-09-28T14:47:09.179Z,648.60
2022-09-28T14:52:09.207Z,654.50
2022-09-28T14:57:09.180Z,654.50
2022-09-28T15:02:09.177Z,633.70
2022-09-28T15:07:09.193Z,633.70
2022-09-28T15:17:09.189Z,607.00
2022-09-28T15:22:09.220Z,713.20
2022-09-28T15:27:09.211Z,713.20
2022-09-28T15:32:09.209Z,745.50
2022-09-28T15:37:09.217Z,745.50
2022-09-28T15:42:09.204Z,766.60
2022-09-28T15:47:09.176Z,766.60
2022-09-28T15:52:09.224Z,629.40
2022-09-28T15:57:09.170Z,629.40
2022-09-28T16:02:09.207Z,647.70
2022-09-28T16:07:09.229Z,647.70
2022-09-28T16:12:09.193Z,559.80
2022-09-28T16:17:09.217Z,559.80
2022-09-28T16:22:09.231Z,587.20
2022-09-28T16:27:09.194Z,587.20
2022-09-28T16:32:09.233Z,571.30
2022-09-28T16:37:09.197Z,571.30
2022-09-28T16:42:09.228Z,561.00
2022-09-28T16:47:09.228Z,561.00
2022-09-28T16:52:09.251Z,524.20
2022-09-28T16:57:09.216Z,524.20
2022-09-28T17:02:09.236Z,556.70
2022-09-28T17:07:09.267Z,556.70
2022-09-28T17:12:09.261Z,658.00
2022-09-28T17:17:12.680Z,658.00
2022-09-28T17:22:09.286Z,663.80
2022-09-28T17:27:09.294Z,663.80
2022-09-28T17:32:09.262Z,823.30
2022-09-28T17:37:09.242Z,823.30
2022-09-28T17:42:09.312Z,800.90
2022-09-28T17:47:09.236Z,800.90
2022-09-28T17:52:09.272Z,809.40
2022-09-28T17:57:09.269Z,809.40
2022-09-28T18:02:09.300Z,722.70
2022-09-28T18:07:09.275Z,722.70
2022-09-28T18:12:09.236Z,758.20
2022-09-28T18:17:09.282Z,758.20
2022-09-28T18:22:09.316Z,787.00
2022-09-28T18:27:09.255Z,787.00
2022-09-28T18:32:09.280Z,710.60
2022-09-28T18:37:09.366Z,710.60
2022-09-28T18:42:09.255Z,700.80
2022-09-28T18:47:09.285Z,700.80
2022-09-28T18:52:09.303Z,646.10
2022-09-28T18:57:09.616Z,646.10
2022-09-28T19:02:09.453Z,640.90
2022-09-28T19:07:09.304Z,640.90
2022-09-28T19:12:09.333Z,731.20
2022-09-28T19:17:09.298Z,731.20
2022-09-28T19:22:09.325Z,718.10
2022-09-28T19:27:09.310Z,718.10
2022-09-28T19:32:09.313Z,624.70
2022-09-28T19:37:09.285Z,624.70
2022-09-28T19:42:09.366Z,784.10
2022-09-28T19:47:09.288Z,784.10
2022-09-28T19:57:09.320Z,791.50
2022-09-28T20:02:09.363Z,691.80
2022-09-28T20:07:09.348Z,691.80
2022-09-28T20:12:09.299Z,653.30
2022-09-28T20:17:09.323Z,653.30
2022-09-28T20:22:09.300Z,689.00
2022-09-28T20:27:09.340Z,689.00
2022-09-28T20:32:09.340Z,658.30
2022-09-28T20:37:09.446Z,658.30
2022-09-28T20:42:09.332Z,634.20
2022-09-28T20:47:09.375Z,634.20
2022-09-28T20:52:09.316Z,759.20
2022-09-28T20:57:09.490Z,759.20
2022-09-28T21:02:09.350Z,683.30
2022-09-28T21:07:09.354Z,683.30
2022-09-28T21:12:09.337Z,563.60
2022-09-28T21:17:09.346Z,563.60
2022-09-28T21:22:09.364Z,650.70
2022-09-28T21:27:09.380Z,650.70
2022-09-28T21:32:09.364Z,693.20
2022-09-28T21:37:09.378Z,693.20
2022-09-28T21:42:09.629Z,718.10
2022-09-28T21:47:09.363Z,718.10
2022-09-28T21:52:09.579Z,621.50
2022-09-28T21:57:09.374Z,621.50
2022-09-28T22:02:09.367Z,653.00
2022-09-28T22:07:09.393Z,653.00
2022-09-28T22:12:09.387Z,606.20
2022-09-28T22:17:09.379Z,606.20
2022-09-28T22:22:09.396Z,568.90
2022-09-28T22:27:09.390Z,568.90
2022-09-28T22:32:09.395Z,575.50
2022-09-28T22:37:09.393Z,575.50
2022-09-28T22:42:09.405Z,569.30
2022-09-28T22:47:09.403Z,569.30
2022-09-28T22:52:09.371Z,571.70
2022-09-28T22:57:09.410Z,571.70
2022-09-28T23:02:09.401Z,574.90
2022-09-28T23:07:09.406Z,574.90
2022-09-28T23:17:09.405Z,587.10
2022-09-28T23:22:09.389Z,600.30
2022-09-28T23:27:09.413Z,600.30
2022-09-28T23:32:09.427Z,574.90
2022-09-28T23:37:09.444Z,574.90
2022-09-28T23:42:09.401Z,586.50
2022-09-28T23:47:09.437Z,586.50
2022-09-28T23:52:09.396Z,516.60
2022-09-28T23:57:09.464Z,516.60
